This is the latest recevied weather packets stored in our database for station/object OE-11061. If no packets are shown the sender has not sent any weather packets the latest 10 day(s).
| Time | Temp. | Humidity | Pressure | Rain* | Wind** | Luminosity | Snow |
|---|---|---|---|---|---|---|---|
| 1788424895 | 22.22° C | 59% | 1021.5 hPa | 0 mm | - | 396 W/m² | - |
| 1788424522 | 22.22° C | 57% | 1021.6 hPa | 0 mm | - | 426 W/m² | - |
| 1788423922 | 22.22° C | 59% | 1021.5 hPa | 0 mm | - | 560 W/m² | - |
| 1788423095 | 21.67° C | 62% | 1021.6 hPa | 0 mm | - | 433 W/m² | - |
| 1788422722 | 21.11° C | 63% | 1021.9 hPa | 0 mm | - | 314 W/m² | - |
| 1788422122 | 21.11° C | 62% | 1022 hPa | 0 mm | - | 314 W/m² | - |
| 1788421295 | 21.11° C | 61% | 1021.8 hPa | 0 mm | - | 448 W/m² | - |
| 1788420922 | 21.11° C | 60% | 1021.8 hPa | 0 mm | - | 463 W/m² | - |
| 1788420321 | 20.56° C | 64% | 1021.9 hPa | 0 mm | - | 411 W/m² | - |
| 1788419495 | 19.44° C | 66% | 1022.2 hPa | 0 mm | - | 381 W/m² | - |
| 1788419122 | 18.89° C | 65% | 1022.3 hPa | 0 mm | - | 321 W/m² | - |
| 1788418522 | 18.89° C | 66% | 1022.2 hPa | 0 mm | - | 321 W/m² | - |
| 1788417694 | 18.33° C | 71% | 1022.3 hPa | 0 mm | - | 202 W/m² | - |
| 1788417322 | 17.78° C | 71% | 1022.3 hPa | 0 mm | - | 284 W/m² | - |
| 1788416722 | 17.78° C | 74% | 1022.3 hPa | 0 mm | - | 232 W/m² | - |
| 1788415895 | 17.22° C | 78% | 1022.4 hPa | 0 mm | - | 202 W/m² | - |
| 1788415522 | 16.11° C | 84% | 1022.5 hPa | 0 mm | - | 164 W/m² | - |
| 1788414922 | 15.56° C | 83% | 1022.5 hPa | 0 mm | - | 142 W/m² | - |
| 1788414094 | 15° C | 84% | 1022.6 hPa | 0 mm | - | 112 W/m² | - |
| 1788413722 | 14.44° C | 85% | 1022.6 hPa | 0 mm | - | 90 W/m² | - |
| 1788413122 | 13.89° C | 86% | 1022.7 hPa | 0 mm | - | 52 W/m² | - |
| 1788412295 | 13.89° C | 86% | 1022.7 hPa | 0 mm | - | 22 W/m² | - |
| 1788411922 | 13.89° C | 86% | 1022.6 hPa | 0 mm | - | 15 W/m² | - |
| 1788411322 | 13.89° C | 86% | 1022.5 hPa | 0 mm | - | 7 W/m² | - |
| 1788410494 | 13.89° C | 86% | 1022.5 hPa | 0 mm | - | 0 W/m² | - |
* Rain latest hour (hover to see other rain measurements)
** Current wind speed in m/s (hover to see current wind gust speed)